Time;durP1;ratioP1;P1;durP2;ratioP2;P2;SDS_P1;SDS_P2;PMS_P1;PMS_P2;Temp;Humidity;BMP_temperature;BMP_pressure;BME280_temperature;BME280_humidity;BME280_pressure;Samples;Min_cycle;Max_cycle;Signal;HPM_P1;HPM_P2
2023/07/06 04:05:31;;;;;;;0.90;0.90;;;13.40;99.90;;;;;;5586228;23;20507;-60
2023/07/06 04:07:58;;;;;;;2.20;1.80;;;13.40;99.90;;;;;;4986277;28;20455;-61
2023/07/06 04:10:23;;;;;;;1.43;1.30;;;13.50;99.90;;;;;;4993602;28;20405;-61
2023/07/06 04:12:50;;;;;;;1.87;1.67;;;13.50;99.90;;;;;;4974819;28;20498;-61
2023/07/06 04:15:18;;;;;;;1.60;1.50;;;13.50;99.90;;;;;;4955540;28;20642;-60
2023/07/06 04:17:50;;;;;;;2.33;1.53;;;13.50;99.90;;;;;;4954960;29;20422;-60
2023/07/06 04:20:24;;;;;;;1.43;1.40;;;13.60;99.90;;;;;;4955248;29;20540;-61
2023/07/06 04:22:54;;;;;;;1.70;1.40;;;13.60;99.90;;;;;;4957849;28;20414;-62
2023/07/06 04:25:29;;;;;;;1.30;1.20;;;13.70;99.90;;;;;;4993166;28;20769;-62
2023/07/06 04:27:55;;;;;;;1.50;1.40;;;13.90;99.90;;;;;;4993779;28;20412;-61
2023/07/06 04:30:21;;;;;;;1.97;1.80;;;14.00;99.90;;;;;;4993487;28;20452;-61
2023/07/06 04:32:48;;;;;;;1.63;1.53;;;14.10;99.90;;;;;;4993685;28;20844;-61
2023/07/06 04:35:16;;;;;;;1.50;1.50;;;14.20;99.90;;;;;;4992118;28;20741;-61
2023/07/06 04:37:45;;;;;;;1.50;1.40;;;14.40;99.90;;;;;;4993518;28;20418;-61
2023/07/06 04:40:13;;;;;;;1.30;1.20;;;14.60;99.90;;;;;;4991098;28;20556;-61
2023/07/06 04:42:40;;;;;;;1.80;1.70;;;14.80;99.90;;;;;;4956139;28;20431;-60
2023/07/06 04:45:09;;;;;;;1.43;1.33;;;15.10;99.90;;;;;;4973288;28;20443;-61
2023/07/06 04:47:36;;;;;;;1.63;1.53;;;15.30;99.90;;;;;;4974154;28;20431;-62
2023/07/06 04:50:02;;;;;;;1.17;1.13;;;15.60;99.90;;;;;;4974024;28;20411;-61
2023/07/06 04:52:29;;;;;;;1.43;1.40;;;15.80;99.90;;;;;;4956577;28;20431;-61
2023/07/06 04:54:54;;;;;;;1.50;1.40;;;15.90;99.90;;;;;;4976167;28;20482;-60
2023/07/06 04:57:20;;;;;;;2.53;2.00;;;16.00;99.90;;;;;;4977357;28;20458;-61
2023/07/06 04:59:45;;;;;;;1.83;1.73;;;16.00;99.90;;;;;;4960208;28;20603;-61
2023/07/06 05:02:11;;;;;;;2.83;1.53;;;16.10;99.90;;;;;;4977540;28;20164;-61
2023/07/06 05:04:42;;;;;;;2.10;1.90;;;16.20;99.90;;;;;;4976968;28;20704;-61
2023/07/06 05:07:11;;;;;;;1.73;1.63;;;16.20;99.90;;;;;;4962710;28;20228;-60
2023/07/06 05:09:40;;;;;;;1.57;1.53;;;16.20;99.90;;;;;;4959362;28;20779;-61
2023/07/06 05:12:07;;;;;;;1.17;1.13;;;16.20;99.90;;;;;;4977404;28;20903;-63
2023/07/06 05:14:34;;;;;;;1.70;1.60;;;16.10;99.90;;;;;;4974544;28;20463;-66
2023/07/06 05:17:00;;;;;;;1.47;1.43;;;16.20;99.90;;;;;;4976757;28;20428;-65
2023/07/06 05:19:27;;;;;;;1.73;1.63;;;16.20;99.90;;;;;;4959481;28;20451;-64
2023/07/06 05:21:55;;;;;;;2.17;1.90;;;16.20;99.90;;;;;;4976492;28;20778;-65
2023/07/06 05:24:21;;;;;;;2.70;2.50;;;16.30;99.90;;;;;;4975802;28;20533;-66
2023/07/06 05:26:47;;;;;;;2.60;2.17;;;16.40;99.90;;;;;;4976964;28;20420;-65
2023/07/06 05:29:12;;;;;;;2.47;2.00;;;16.40;99.90;;;;;;4974139;28;20447;-64
2023/07/06 05:31:38;;;;;;;2.17;2.00;;;16.50;99.90;;;;;;4985583;28;20199;-64
2023/07/06 05:34:03;;;;;;;1.43;1.33;;;16.50;99.90;;;;;;4977677;28;20200;-64
2023/07/06 05:36:29;;;;;;;2.50;2.30;;;16.70;99.90;;;;;;4982361;28;20627;-65
2023/07/06 05:38:54;;;;;;;1.93;1.40;;;16.90;99.90;;;;;;4976694;28;20176;-64
2023/07/06 05:41:20;;;;;;;2.20;2.03;;;17.20;99.90;;;;;;4976433;28;20569;-64
2023/07/06 05:43:45;;;;;;;1.23;1.23;;;17.80;99.90;;;;;;4958887;28;20191;-65
2023/07/06 05:46:11;;;;;;;1.90;1.77;;;18.20;99.90;;;;;;4958929;28;20193;-64
2023/07/06 05:48:37;;;;;;;4.20;1.60;;;18.50;99.90;;;;;;4976225;28;20180;-65
2023/07/06 05:51:03;;;;;;;1.97;1.87;;;18.70;99.90;;;;;;4976004;28;20187;-65
2023/07/06 05:53:28;;;;;;;2.73;1.30;;;18.70;99.90;;;;;;4974791;28;20180;-63
2023/07/06 05:55:54;;;;;;;1.60;1.50;;;18.50;99.90;;;;;;4976030;28;20957;-65
2023/07/06 05:58:19;;;;;;;1.13;1.13;;;18.50;99.90;;;;;;4973926;28;20189;-63
2023/07/06 06:00:45;;;;;;;1.40;1.30;;;18.40;99.90;;;;;;4971112;28;20232;-66
2023/07/06 06:03:11;;;;;;;1.20;1.20;;;18.40;99.90;;;;;;4975920;28;20175;-64
2023/07/06 06:05:39;;;;;;;1.20;1.17;;;18.50;99.90;;;;;;4975158;28;20274;-65
2023/07/06 06:08:05;;;;;;;1.77;1.67;;;18.60;99.90;;;;;;4958716;28;20422;-65
2023/07/06 06:10:33;;;;;;;2.50;1.70;;;18.70;99.90;;;;;;4953711;28;20441;-64
2023/07/06 06:13:01;;;;;;;1.27;1.17;;;18.80;99.90;;;;;;4975690;28;20768;-65
2023/07/06 06:15:27;;;;;;;1.07;0.97;;;18.80;99.80;;;;;;4975688;28;20431;-65
2023/07/06 06:17:52;;;;;;;1.33;1.20;;;18.90;99.90;;;;;;4975126;28;20933;-65
2023/07/06 06:20:19;;;;;;;1.30;1.30;;;18.90;99.90;;;;;;4972176;28;20211;-65
2023/07/06 06:22:47;;;;;;;3.30;1.83;;;19.00;99.90;;;;;;4975687;28;20257;-65
2023/07/06 06:25:13;;;;;;;1.40;1.30;;;19.10;99.90;;;;;;4979726;28;20451;-64
2023/07/06 06:27:39;;;;;;;1.40;1.30;;;19.10;98.90;;;;;;4975572;28;20828;-65
2023/07/06 06:30:05;;;;;;;1.20;1.20;;;19.20;99.00;;;;;;4974978;28;20187;-67
2023/07/06 06:32:34;;;;;;;1.30;1.20;;;19.40;98.60;;;;;;4968674;28;20586;-64
2023/07/06 06:34:59;;;;;;;2.80;1.40;;;19.60;98.40;;;;;;4963257;28;20455;-65
2023/07/06 06:37:27;;;;;;;2.13;1.33;;;19.90;97.50;;;;;;4975290;28;20462;-65
2023/07/06 06:39:53;;;;;;;1.40;1.30;;;20.10;96.80;;;;;;4975364;28;20188;-65
2023/07/06 06:42:19;;;;;;;2.00;1.50;;;20.20;96.10;;;;;;4973655;28;20771;-65
2023/07/06 06:44:45;;;;;;;2.13;1.10;;;20.20;96.30;;;;;;4974739;28;20603;-65
2023/07/06 06:47:10;;;;;;;1.40;1.30;;;20.20;96.60;;;;;;4962035;28;20417;-64
2023/07/06 06:49:36;;;;;;;1.20;1.20;;;20.30;95.60;;;;;;4955944;28;20482;-65
2023/07/06 06:52:03;;;;;;;1.23;1.13;;;20.40;95.20;;;;;;4956140;29;20713;-64
2023/07/06 06:54:30;;;;;;;1.60;1.50;;;20.50;94.50;;;;;;4955749;29;20189;-65
2023/07/06 06:56:56;;;;;;;1.10;1.10;;;20.60;94.30;;;;;;4968189;28;20929;-63
2023/07/06 06:59:21;;;;;;;1.83;1.30;;;20.70;93.70;;;;;;4975030;28;20419;-65
2023/07/06 07:01:50;;;;;;;1.00;1.00;;;20.70;92.60;;;;;;4974926;28;20174;-65
2023/07/06 07:04:17;;;;;;;1.30;1.20;;;20.60;93.00;;;;;;4974896;28;20199;-65
2023/07/06 07:06:42;;;;;;;0.87;0.87;;;20.60;92.60;;;;;;4975035;28;20423;-65
2023/07/06 07:09:13;;;;;;;1.50;1.30;;;20.70;92.50;;;;;;4975159;28;20196;-65
2023/07/06 07:11:38;;;;;;;2.60;1.30;;;20.70;92.40;;;;;;4975032;28;20176;-65
2023/07/06 07:14:07;;;;;;;1.10;1.10;;;20.80;92.40;;;;;;4974339;28;20419;-64
2023/07/06 07:16:34;;;;;;;1.03;1.03;;;20.90;92.10;;;;;;4974127;28;20180;-64
2023/07/06 07:19:00;;;;;;;0.93;0.93;;;20.90;92.20;;;;;;4975041;28;20403;-64
2023/07/06 07:21:26;;;;;;;1.93;1.80;;;20.90;92.70;;;;;;4965571;28;20467;-65
2023/07/06 07:23:51;;;;;;;1.17;1.00;;;21.00;93.00;;;;;;4980960;28;20451;-64
2023/07/06 07:26:22;;;;;;;1.33;1.23;;;21.10;92.20;;;;;;4974438;28;20203;-65
2023/07/06 07:28:48;;;;;;;1.10;1.00;;;21.30;91.40;;;;;;4973079;28;20188;-64
2023/07/06 07:31:15;;;;;;;1.10;1.10;;;21.60;91.60;;;;;;4973773;28;20444;-64
2023/07/06 07:33:44;;;;;;;1.40;1.30;;;22.10;91.90;;;;;;4972676;28;20431;-63
2023/07/06 07:36:12;;;;;;;1.40;1.27;;;22.90;90.60;;;;;;4974597;28;20436;-62
2023/07/06 07:38:38;;;;;;;1.80;1.50;;;23.70;89.40;;;;;;4974215;28;20423;-64
2023/07/06 07:41:06;;;;;;;1.23;1.13;;;24.50;86.80;;;;;;4974386;28;20536;-65
2023/07/06 07:43:34;;;;;;;2.53;1.20;;;25.50;83.60;;;;;;4974491;28;20562;-65
2023/07/06 07:46:05;;;;;;;1.70;1.30;;;26.60;79.70;;;;;;4974140;28;20477;-67
2023/07/06 07:48:37;;;;;;;1.00;0.90;;;27.90;77.10;;;;;;4957166;28;20423;-63
2023/07/06 07:51:08;;;;;;;2.00;1.80;;;29.40;73.30;;;;;;4956719;28;20413;-64
2023/07/06 07:53:37;;;;;;;1.70;1.60;;;31.00;66.80;;;;;;4973383;28;22115;-65
2023/07/06 07:56:04;;;;;;;2.57;1.80;;;32.10;61.10;;;;;;4974467;28;20850;-65
2023/07/06 07:58:31;;;;;;;1.40;1.30;;;32.50;59.50;;;;;;4974533;28;20411;-64
2023/07/06 08:00:57;;;;;;;1.70;1.60;;;33.20;58.50;;;;;;4974161;28;21009;-64
2023/07/06 08:03:23;;;;;;;1.60;1.50;;;33.90;57.20;;;;;;4973715;28;20490;-66
2023/07/06 08:05:52;;;;;;;1.50;1.40;;;34.50;56.10;;;;;;4974128;28;20841;-64
2023/07/06 08:08:18;;;;;;;1.20;1.20;;;34.80;54.20;;;;;;4973939;28;20442;-62
2023/07/06 08:10:45;;;;;;;1.43;1.33;;;35.00;54.20;;;;;;4973846;28;20427;-62
2023/07/06 08:13:11;;;;;;;1.43;1.30;;;35.00;53.00;;;;;;4974294;28;20432;-64
2023/07/06 08:15:37;;;;;;;1.53;1.43;;;35.40;52.50;;;;;;4972848;28;20490;-64
2023/07/06 08:18:05;;;;;;;1.90;1.80;;;36.00;50.90;;;;;;4959506;28;20176;-64
2023/07/06 08:20:32;;;;;;;1.60;1.50;;;36.40;50.30;;;;;;4974055;28;20514;-69
2023/07/06 08:23:04;;;;;;;1.70;1.60;;;36.60;50.10;;;;;;4974338;28;20419;-69
2023/07/06 08:25:37;;;;;;;1.30;1.20;;;36.80;49.10;;;;;;4973274;28;20534;-69
2023/07/06 08:28:05;;;;;;;2.23;2.03;;;36.60;48.80;;;;;;4974642;28;20486;-69
2023/07/06 08:30:32;;;;;;;1.30;1.30;;;36.70;49.00;;;;;;4977629;28;20415;-69
2023/07/06 08:33:00;;;;;;;1.20;1.20;;;36.90;48.70;;;;;;4977705;28;20439;-68
2023/07/06 08:35:28;;;;;;;1.70;1.60;;;36.80;47.70;;;;;;4977285;28;20866;-69
2023/07/06 08:37:54;;;;;;;1.57;1.30;;;36.70;48.50;;;;;;4978048;28;20427;-69
2023/07/06 08:40:24;;;;;;;1.83;1.73;;;37.00;47.30;;;;;;4961591;28;20434;-68
2023/07/06 08:42:50;;;;;;;1.43;1.40;;;37.10;47.10;;;;;;4980661;28;20813;-67
2023/07/06 08:45:19;;;;;;;2.37;2.17;;;37.30;46.00;;;;;;4996742;28;20430;-66
2023/07/06 08:47:47;;;;;;;1.70;1.60;;;36.90;46.20;;;;;;4996076;28;20174;-70
2023/07/06 08:50:15;;;;;;;1.43;1.43;;;36.70;46.20;;;;;;4962841;28;20471;-67
2023/07/06 08:52:42;;;;;;;1.70;1.60;;;36.50;45.30;;;;;;4959481;28;20447;-70
2023/07/06 08:55:13;;;;;;;1.20;1.20;;;35.90;46.50;;;;;;4976215;28;20428;-70
2023/07/06 08:57:39;;;;;;;1.70;1.60;;;35.90;46.40;;;;;;4976214;28;20429;-68
2023/07/06 09:00:22;;;;;;;2.90;1.70;;;36.40;46.90;;;;;;4976269;28;20426;-66
2023/07/06 09:02:50;;;;;;;1.70;1.60;;;37.00;46.90;;;;;;4958021;29;20424;-66
2023/07/06 09:05:17;;;;;;;1.70;1.60;;;37.50;45.80;;;;;;4968997;28;20463;-66
2023/07/06 09:07:45;;;;;;;1.33;1.33;;;37.20;45.80;;;;;;4977505;28;20419;-67
2023/07/06 09:10:12;;;;;;;1.50;1.50;;;37.20;45.90;;;;;;4977055;28;20443;-67
2023/07/06 09:12:39;;;;;;;1.50;1.50;;;37.40;45.00;;;;;;4977388;28;20502;-66
2023/07/06 09:15:09;;;;;;;1.80;1.70;;;37.50;43.80;;;;;;4976802;28;20814;-65
2023/07/06 09:17:44;;;;;;;1.20;1.20;;;37.60;43.90;;;;;;4977294;28;20408;-66
2023/07/06 09:20:12;;;;;;;1.80;1.70;;;37.60;44.30;;;;;;4977010;28;20518;-68
2023/07/06 09:22:40;;;;;;;1.70;1.60;;;36.90;43.70;;;;;;4976972;28;20466;-65
2023/07/06 09:25:17;;;;;;;1.60;1.60;;;36.60;44.70;;;;;;4976502;28;20851;-65
2023/07/06 09:27:47;;;;;;;1.53;1.43;;;37.00;43.50;;;;;;4976873;28;20427;-68
2023/07/06 09:30:29;;;;;;;1.07;1.07;;;37.00;44.90;;;;;;4977136;28;20448;-68
2023/07/06 09:33:13;;;;;;;1.20;1.20;;;36.50;43.70;;;;;;4977349;28;20404;-65
2023/07/06 09:35:39;;;;;;;2.10;1.40;;;35.20;43.90;;;;;;4976507;28;20774;-67
2023/07/06 09:38:08;;;;;;;1.70;1.60;;;34.50;44.60;;;;;;4977045;28;20420;-67
2023/07/06 09:40:34;;;;;;;1.37;1.27;;;34.40;45.20;;;;;;4976451;28;20404;-65
2023/07/06 09:43:00;;;;;;;1.63;1.53;;;34.50;45.00;;;;;;4959364;28;20404;-65
2023/07/06 09:45:29;;;;;;;1.60;1.50;;;35.00;45.10;;;;;;4976332;28;20428;-68
2023/07/06 09:48:09;;;;;;;1.90;1.80;;;35.00;45.70;;;;;;4976568;28;20451;-66
2023/07/06 09:50:43;;;;;;;1.50;1.20;;;34.00;45.40;;;;;;4976785;28;20766;-66
2023/07/06 09:53:15;;;;;;;1.40;1.27;;;33.00;45.90;;;;;;4976346;28;20571;-68
2023/07/06 09:55:41;;;;;;;1.60;1.50;;;32.00;46.90;;;;;;4975904;28;20482;-65
2023/07/06 09:58:14;;;;;;;1.57;1.30;;;31.10;48.00;;;;;;4959352;28;20898;-63
2023/07/06 10:00:46;;;;;;;1.57;1.47;;;30.80;48.40;;;;;;4976675;28;20172;-68
2023/07/06 10:03:31;;;;;;;1.37;1.13;;;30.50;49.10;;;;;;4976296;28;20428;-71
2023/07/06 10:06:13;;;;;;;1.20;1.10;;;30.50;49.20;;;;;;4975892;28;20524;-63
2023/07/06 10:08:46;;;;;;;1.47;1.37;;;30.80;49.70;;;;;;4975995;28;20423;-67
2023/07/06 10:11:28;;;;;;;2.10;2.00;;;30.70;49.40;;;;;;4975928;28;20470;-61
2023/07/06 10:14:16;;;;;;;2.20;1.60;;;30.20;49.60;;;;;;4975997;28;20435;-61
2023/07/06 10:17:01;;;;;;;2.07;1.70;;;29.80;50.40;;;;;;4964866;28;20470;-64
2023/07/06 10:19:47;;;;;;;1.47;1.37;;;30.30;51.40;;;;;;4975713;28;20449;-62
2023/07/06 10:22:32;;;;;;;1.33;1.23;;;31.20;50.20;;;;;;4976228;28;20458;-64
2023/07/06 10:25:09;;;;;;;2.17;2.03;;;32.00;49.80;;;;;;4974680;28;20444;-62
2023/07/06 10:27:40;;;;;;;1.50;1.40;;;32.30;48.10;;;;;;4974564;28;20506;-63
2023/07/06 10:30:20;;;;;;;1.60;1.50;;;32.00;48.00;;;;;;4957920;28;20498;-62
2023/07/06 10:32:48;;;;;;;1.33;1.20;;;31.60;48.60;;;;;;4957519;28;20459;-62
2023/07/06 10:35:14;;;;;;;1.30;1.20;;;31.20;49.10;;;;;;4974169;28;20847;-63
2023/07/06 10:37:42;;;;;;;1.30;1.20;;;30.80;49.10;;;;;;4974740;28;20397;-65
2023/07/06 10:40:26;;;;;;;1.30;1.20;;;30.90;49.70;;;;;;4957376;28;20405;-61
2023/07/06 10:43:13;;;;;;;1.33;1.17;;;31.40;49.10;;;;;;4975359;28;20517;-61
2023/07/06 10:45:49;;;;;;;1.50;1.40;;;32.20;47.70;;;;;;4975342;28;20502;-60
2023/07/06 10:48:21;;;;;;;1.60;1.50;;;32.70;46.90;;;;;;4975365;28;20402;-61
2023/07/06 10:51:15;;;;;;;1.90;1.80;;;32.90;46.50;;;;;;4974827;28;20995;-61
2023/07/06 10:53:47;;;;;;;1.50;1.40;;;32.90;46.60;;;;;;4975055;28;20431;-62
2023/07/06 10:56:19;;;;;;;1.93;1.70;;;33.20;46.70;;;;;;4974455;28;20439;-61
2023/07/06 10:58:57;;;;;;;1.70;1.60;;;33.40;46.70;;;;;;4957560;28;20430;-61
2023/07/06 11:01:40;;;;;;;1.60;1.50;;;33.30;46.10;;;;;;4975495;28;20443;-62
2023/07/06 11:04:40;;;;;;;1.40;1.30;;;33.20;46.70;;;;;;4958037;28;20436;-62
2023/07/06 11:07:14;;;;;;;1.60;1.50;;;33.00;45.80;;;;;;4958452;28;20439;-61
2023/07/06 11:10:07;;;;;;;1.87;1.77;;;32.90;46.40;;;;;;4974787;28;20456;-61
2023/07/06 11:12:49;;;;;;;1.60;1.50;;;32.90;46.10;;;;;;4958208;28;20478;-61
2023/07/06 11:15:21;;;;;;;1.53;1.43;;;32.80;45.60;;;;;;4974961;28;20921;-61
2023/07/06 11:17:50;;;;;;;1.60;1.50;;;32.50;46.30;;;;;;4968547;28;20747;-62
2023/07/06 11:20:24;;;;;;;3.93;1.73;;;32.10;45.80;;;;;;4974697;28;20399;-61
2023/07/06 11:22:56;;;;;;;2.40;1.57;;;31.70;46.10;;;;;;4973356;28;20406;-61
2023/07/06 11:25:23;;;;;;;1.53;1.43;;;31.20;47.00;;;;;;4974210;28;20480;-61
2023/07/06 11:27:59;;;;;;;1.33;1.23;;;30.80;47.80;;;;;;4974910;28;20934;-62
2023/07/06 11:30:31;;;;;;;1.50;1.40;;;30.40;48.00;;;;;;4974579;28;20536;-61
2023/07/06 11:32:56;;;;;;;2.07;1.60;;;30.00;48.80;;;;;;4972881;28;20486;-61
2023/07/06 11:35:36;;;;;;;1.30;1.13;;;29.80;48.30;;;;;;4974351;28;20435;-61
2023/07/06 11:38:17;;;;;;;1.30;1.20;;;29.60;49.50;;;;;;4974711;28;20223;-60
2023/07/06 11:41:13;;;;;;;1.57;1.47;;;29.20;49.10;;;;;;4974850;28;20412;-61
2023/07/06 11:43:38;;;;;;;1.17;1.10;;;28.60;49.60;;;;;;4974555;28;20461;-61
2023/07/06 11:46:27;;;;;;;1.77;1.50;;;28.00;50.80;;;;;;4974543;28;20503;-61
2023/07/06 11:48:52;;;;;;;1.77;1.67;;;27.50;51.30;;;;;;4963876;28;20248;-60
2023/07/06 11:51:19;;;;;;;1.50;1.40;;;27.20;51.30;;;;;;4974235;28;20465;-61
2023/07/06 11:56:32;;;;;;;1.30;1.20;;;26.80;52.00;;;;;;4974669;28;20433;-61
2023/07/06 11:59:04;;;;;;;1.20;1.10;;;26.60;53.00;;;;;;4974785;28;20404;-61
2023/07/06 12:01:45;;;;;;;1.70;1.60;;;26.40;53.10;;;;;;4975003;28;20412;-61
2023/07/06 12:04:18;;;;;;;1.80;1.53;;;26.40;52.90;;;;;;4980584;28;20478;-61
2023/07/06 12:06:45;;;;;;;2.40;2.20;;;26.30;53.10;;;;;;4981011;28;20841;-60
2023/07/06 12:09:17;;;;;;;1.43;1.43;;;26.20;53.00;;;;;;4961579;29;20420;-61
2023/07/06 12:11:44;;;;;;;2.23;1.30;;;26.10;53.20;;;;;;4961949;28;20412;-62
2023/07/06 12:14:18;;;;;;;1.47;1.37;;;26.10;53.90;;;;;;4943881;28;20736;-60
2023/07/06 12:16:44;;;;;;;2.20;1.27;;;26.20;53.60;;;;;;4951082;28;20435;-62
2023/07/06 12:19:12;;;;;;;1.20;1.10;;;26.30;53.50;;;;;;4980849;28;20424;-62
2023/07/06 12:21:53;;;;;;;1.23;1.17;;;26.20;52.90;;;;;;4976919;28;20855;-60
2023/07/06 12:24:21;;;;;;;1.33;1.23;;;26.00;53.30;;;;;;4992723;28;20426;-61
2023/07/06 12:26:53;;;;;;;1.07;1.07;;;25.90;53.70;;;;;;4988701;28;20439;-60
2023/07/06 12:29:23;;;;;;;0.83;0.83;;;25.80;55.40;;;;;;4979810;28;20949;-61
2023/07/06 12:31:50;;;;;;;1.90;1.63;;;25.60;55.20;;;;;;4980268;28;20433;-61
2023/07/06 12:34:19;;;;;;;1.10;1.10;;;25.60;56.00;;;;;;4980366;28;20422;-61
2023/07/06 12:36:49;;;;;;;1.80;1.70;;;25.60;56.00;;;;;;4981031;28;20389;-60
2023/07/06 12:39:18;;;;;;;1.30;1.20;;;25.60;56.20;;;;;;4980221;28;20423;-60
2023/07/06 12:41:44;;;;;;;1.47;1.40;;;25.70;56.40;;;;;;4963003;28;20427;-60
2023/07/06 12:44:18;;;;;;;1.70;1.60;;;25.70;56.40;;;;;;4980264;28;20790;-61
2023/07/06 12:46:52;;;;;;;0.97;0.97;;;25.80;56.40;;;;;;4979906;28;20518;-60
2023/07/06 12:49:23;;;;;;;0.90;0.90;;;25.90;56.40;;;;;;4970723;28;20468;-61
2023/07/06 12:51:55;;;;;;;1.03;1.00;;;25.90;56.30;;;;;;4962823;28;20427;-60
2023/07/06 12:54:25;;;;;;;1.10;1.10;;;26.00;56.20;;;;;;4968580;28;20459;-61
2023/07/06 12:57:22;;;;;;;1.30;1.20;;;26.10;55.70;;;;;;4943087;29;20460;-60
2023/07/06 12:59:52;;;;;;;1.73;1.20;;;26.10;55.40;;;;;;4961078;28;20387;-61
2023/07/06 13:02:20;;;;;;;1.43;1.33;;;26.20;54.90;;;;;;4977335;28;20397;-61
2023/07/06 13:04:48;;;;;;;1.20;1.10;;;26.40;55.20;;;;;;4962640;28;20853;-60
2023/07/06 13:07:27;;;;;;;1.30;1.30;;;26.60;54.90;;;;;;4980232;28;20427;-60
2023/07/06 13:09:53;;;;;;;1.27;1.17;;;26.70;54.00;;;;;;4979950;28;20455;-64
2023/07/06 13:12:31;;;;;;;1.50;1.33;;;26.70;53.70;;;;;;4980456;28;20408;-61
2023/07/06 13:15:03;;;;;;;1.83;1.50;;;26.80;54.50;;;;;;4976416;28;20447;-65
2023/07/06 13:17:28;;;;;;;1.30;1.20;;;26.90;53.20;;;;;;4958320;28;20422;-66
2023/07/06 13:19:56;;;;;;;3.03;1.40;;;27.00;53.30;;;;;;4964017;28;20381;-66
2023/07/06 13:22:22;;;;;;;1.13;1.03;;;26.90;53.50;;;;;;4996913;28;20171;-65
2023/07/06 13:24:48;;;;;;;1.20;1.13;;;26.60;54.40;;;;;;4982802;28;20442;-68
2023/07/06 13:27:16;;;;;;;1.10;1.10;;;26.30;54.50;;;;;;4959417;28;20522;-65
2023/07/06 13:29:42;;;;;;;1.73;1.40;;;26.20;54.80;;;;;;4976381;28;20279;-65
2023/07/06 13:32:16;;;;;;;0.87;0.87;;;26.10;54.50;;;;;;4977117;28;20422;-65
2023/07/06 13:34:43;;;;;;;1.53;1.43;;;26.00;54.60;;;;;;4976099;28;20519;-65
2023/07/06 13:37:17;;;;;;;1.13;1.13;;;25.80;55.20;;;;;;4976714;28;20443;-64
2023/07/06 13:39:42;;;;;;;1.23;1.13;;;25.60;55.60;;;;;;4971622;28;20769;-65
2023/07/06 13:42:09;;;;;;;1.23;1.10;;;25.50;55.70;;;;;;4959096;28;20408;-64
2023/07/06 13:44:35;;;;;;;1.10;1.10;;;25.40;55.80;;;;;;4975672;28;20195;-66
2023/07/06 13:47:02;;;;;;;1.30;1.20;;;25.20;55.80;;;;;;4976897;28;20416;-65
2023/07/06 13:49:28;;;;;;;0.93;0.93;;;25.10;57.80;;;;;;4976546;28;20263;-65
2023/07/06 13:51:54;;;;;;;1.43;1.33;;;25.10;56.80;;;;;;4976577;28;20415;-64
2023/07/06 13:54:23;;;;;;;1.23;1.13;;;25.10;56.40;;;;;;4975873;28;20438;-64
2023/07/06 13:56:49;;;;;;;0.97;0.80;;;25.20;56.20;;;;;;4976564;28;20412;-66
2023/07/06 13:59:15;;;;;;;1.13;1.03;;;25.30;56.80;;;;;;4975711;28;20789;-66
2023/07/06 14:01:43;;;;;;;1.00;1.00;;;25.40;55.80;;;;;;4976558;28;20407;-66
2023/07/06 14:04:10;;;;;;;0.80;0.80;;;25.60;55.10;;;;;;4975790;28;20168;-64
2023/07/06 14:06:36;;;;;;;2.10;1.87;;;25.60;54.70;;;;;;4976278;28;20435;-65
2023/07/06 14:09:02;;;;;;;1.50;1.40;;;25.80;54.70;;;;;;4969015;28;20427;-65
2023/07/06 14:11:28;;;;;;;1.63;1.53;;;25.80;55.30;;;;;;4976274;28;20438;-66
2023/07/06 14:13:53;;;;;;;1.60;1.50;;;25.80;55.40;;;;;;4975802;28;20791;-65
2023/07/06 14:16:20;;;;;;;1.47;1.37;;;25.70;55.10;;;;;;4976395;28;20208;-66
2023/07/06 14:18:46;;;;;;;2.30;1.33;;;25.70;54.10;;;;;;4976735;28;20199;-65
2023/07/06 14:21:12;;;;;;;3.43;1.63;;;25.60;54.10;;;;;;4976761;28;20418;-65
2023/07/06 14:23:39;;;;;;;1.00;1.00;;;25.60;54.60;;;;;;4973374;28;20424;-65
2023/07/06 14:26:04;;;;;;;1.90;1.30;;;25.50;55.00;;;;;;4975029;28;20449;-64
2023/07/06 14:28:30;;;;;;;1.20;1.20;;;25.50;55.30;;;;;;4958947;28;20444;-64
2023/07/06 14:31:02;;;;;;;2.90;1.47;;;25.50;55.00;;;;;;4976035;28;20199;-65
2023/07/06 14:33:28;;;;;;;1.27;1.17;;;25.40;54.70;;;;;;4975655;28;20411;-65
2023/07/06 14:35:54;;;;;;;1.30;1.20;;;25.50;55.20;;;;;;4975513;28;20439;-68
2023/07/06 14:38:20;;;;;;;1.70;1.60;;;25.50;55.70;;;;;;4958287;28;20950;-64
2023/07/06 14:40:46;;;;;;;1.57;1.47;;;25.50;55.70;;;;;;4975759;28;20500;-64
2023/07/06 14:43:11;;;;;;;1.10;1.00;;;25.60;55.90;;;;;;4975570;28;20449;-67
2023/07/06 14:45:37;;;;;;;1.67;1.57;;;25.70;56.60;;;;;;4957886;28;20200;-66
2023/07/06 14:48:06;;;;;;;1.50;1.50;;;25.70;55.90;;;;;;4975779;28;20519;-65
2023/07/06 14:50:32;;;;;;;1.27;1.17;;;25.80;54.70;;;;;;4975365;28;20461;-64
2023/07/06 14:52:57;;;;;;;1.63;1.50;;;25.80;55.40;;;;;;4957196;28;20419;-65
2023/07/06 14:55:24;;;;;;;2.67;1.63;;;25.90;55.40;;;;;;4974745;28;20198;-64
2023/07/06 14:57:49;;;;;;;1.40;1.30;;;26.10;55.90;;;;;;4975701;28;20172;-64
2023/07/06 15:00:16;;;;;;;1.20;1.17;;;26.20;55.10;;;;;;4975218;28;20415;-66
2023/07/06 15:02:44;;;;;;;1.17;1.10;;;26.30;54.10;;;;;;4975366;28;20531;-66
2023/07/06 15:05:10;;;;;;;1.00;1.00;;;26.30;53.40;;;;;;4974583;28;20469;-66
2023/07/06 15:07:36;;;;;;;1.50;1.40;;;26.30;53.90;;;;;;4975234;28;20463;-66
2023/07/06 15:10:03;;;;;;;1.50;1.40;;;26.30;54.10;;;;;;4975067;28;20610;-66
2023/07/06 15:12:29;;;;;;;1.30;1.20;;;26.30;53.90;;;;;;4974845;28;20435;-64
2023/07/06 15:14:54;;;;;;;2.70;1.80;;;26.10;53.90;;;;;;4974794;28;20810;-65
2023/07/06 15:17:20;;;;;;;1.33;1.27;;;26.10;53.70;;;;;;4974914;28;20177;-67
2023/07/06 15:19:46;;;;;;;1.33;1.23;;;26.00;53.50;;;;;;4975035;28;20176;-66
2023/07/06 15:22:12;;;;;;;1.37;0.93;;;26.00;54.60;;;;;;4974488;28;20187;-65
2023/07/06 15:24:37;;;;;;;1.60;1.50;;;25.80;54.70;;;;;;4974623;28;20768;-67
2023/07/06 15:27:03;;;;;;;1.83;1.73;;;25.70;54.70;;;;;;4974666;28;20184;-66
2023/07/06 15:29:29;;;;;;;0.90;0.90;;;25.60;54.70;;;;;;4974811;28;20712;-66
2023/07/06 15:31:55;;;;;;;1.10;1.10;;;25.50;54.60;;;;;;4975033;28;20183;-64
2023/07/06 15:34:20;;;;;;;1.27;1.17;;;25.50;55.00;;;;;;4974929;28;20209;-64
2023/07/06 15:36:46;;;;;;;1.13;1.03;;;25.40;55.30;;;;;;4974215;28;20722;-63
2023/07/06 15:39:12;;;;;;;1.50;1.40;;;25.30;55.30;;;;;;4974429;28;20199;-66
2023/07/06 15:41:38;;;;;;;1.90;1.50;;;25.20;56.10;;;;;;4975054;28;20574;-65
2023/07/06 15:44:05;;;;;;;2.57;1.67;;;25.10;56.40;;;;;;4974451;28;20419;-65
2023/07/06 15:46:31;;;;;;;1.53;1.43;;;25.10;56.10;;;;;;4974653;28;20792;-64
2023/07/06 15:48:58;;;;;;;1.27;1.27;;;25.10;56.00;;;;;;4974875;28;20458;-64
2023/07/06 15:51:24;;;;;;;1.93;1.83;;;25.10;56.10;;;;;;4974379;28;20468;-67
2023/07/06 15:53:50;;;;;;;1.50;1.40;;;25.00;55.30;;;;;;4956731;28;20438;-63
2023/07/06 15:56:16;;;;;;;1.00;0.93;;;25.10;55.50;;;;;;4974494;28;20436;-64
2023/07/06 15:58:44;;;;;;;2.23;1.57;;;25.10;55.50;;;;;;4974700;28;20176;-66
2023/07/06 16:01:11;;;;;;;1.60;1.50;;;25.10;55.80;;;;;;4974698;28;20465;-66
2023/07/06 16:03:37;;;;;;;1.73;1.30;;;25.20;55.80;;;;;;4974202;28;20809;-65
2023/07/06 16:06:03;;;;;;;1.30;1.20;;;25.20;56.10;;;;;;4974048;28;20513;-66
2023/07/06 16:08:29;;;;;;;1.50;1.40;;;25.20;56.40;;;;;;4974220;28;20452;-65
2023/07/06 16:10:54;;;;;;;1.03;0.90;;;25.30;55.80;;;;;;4973979;28;20964;-67
2023/07/06 16:13:20;;;;;;;1.43;1.33;;;25.20;56.30;;;;;;4974608;28;20196;-63
2023/07/06 16:15:46;;;;;;;1.53;1.43;;;25.30;56.20;;;;;;4973995;28;20246;-68
2023/07/06 16:18:11;;;;;;;2.33;1.20;;;25.20;55.80;;;;;;4974365;28;20176;-63
2023/07/06 16:20:37;;;;;;;1.10;1.10;;;25.20;56.20;;;;;;4974236;28;20665;-62
2023/07/06 16:23:04;;;;;;;0.80;0.80;;;25.20;56.20;;;;;;4973821;28;20207;-63
2023/07/06 16:25:31;;;;;;;2.00;1.30;;;25.20;56.40;;;;;;4973670;28;20515;-61
2023/07/06 16:27:58;;;;;;;1.43;1.33;;;25.20;56.40;;;;;;4974237;28;20842;-61
2023/07/06 16:30:27;;;;;;;1.30;1.20;;;25.20;56.00;;;;;;4974006;28;20521;-61
2023/07/06 16:32:54;;;;;;;1.40;1.30;;;25.10;56.00;;;;;;4974220;28;20420;-61
2023/07/06 16:35:21;;;;;;;1.60;1.30;;;25.10;56.00;;;;;;4973964;28;20438;-61
2023/07/06 16:37:49;;;;;;;1.73;1.60;;;25.20;56.00;;;;;;4973914;28;20948;-63
2023/07/06 16:40:15;;;;;;;1.57;1.47;;;25.20;55.90;;;;;;4974194;28;20412;-62
2023/07/06 16:42:40;;;;;;;1.33;1.27;;;25.20;55.60;;;;;;4974094;28;20405;-62
2023/07/06 16:45:06;;;;;;;1.10;1.10;;;25.10;55.60;;;;;;4973640;28;20431;-62
2023/07/06 16:47:32;;;;;;;1.30;1.20;;;25.10;56.30;;;;;;4973870;28;20673;-62
2023/07/06 16:49:58;;;;;;;1.20;1.10;;;25.00;56.20;;;;;;4976045;28;20485;-62
2023/07/06 16:52:23;;;;;;;2.10;1.20;;;25.00;56.30;;;;;;4959984;28;20235;-61
2023/07/06 16:54:49;;;;;;;1.47;1.37;;;24.90;56.10;;;;;;4977123;28;20685;-62
2023/07/06 16:57:15;;;;;;;1.13;1.07;;;24.80;56.10;;;;;;4977535;28;20203;-61
2023/07/06 16:59:41;;;;;;;1.40;1.30;;;24.80;56.20;;;;;;4959999;28;20190;-65
2023/07/06 17:02:10;;;;;;;2.30;1.43;;;24.80;56.00;;;;;;4977404;28;20662;-62
2023/07/06 17:04:36;;;;;;;1.70;1.23;;;24.80;55.90;;;;;;4977259;28;20196;-62